Ana Sayfa
METAR-TAF:

METAR-TAF

Havaalanları :

New York, New York, Amerika Birleşik Devletleri

Enlem: 40-42-04N, Boylam: 074-00-32W, yükseklik: 2 m

Güncel hava durumu gözlemi

Rapor saat 04:56 UTC de 53 dakika önce yapıldı.
Rüzgar kuzeydoğudan 8 kt
Sıcaklık 9°C
Nem 87%
Basınç 1013 hPa
Görüş mesafesi: 16.1 km
800 ft yükseklikte çok bulutlu

METAR: KJRB 300456Z AUTO 04008KT 10SM OVC008 09/07 A2991 RMK AO2 SLP127 T00890072 400890072

Saat: 01:49 (05:49 UTC)


TAF: eksik

4.000'den fazla havaalanı için hava durumu gözlemleri ve tahminleri (METAR ve TAF raporları).

Kullanılabilir istasyonlar harita üzerinde sarı ve kırmızı noktalarla gösterilir.

İstasyonun adını görmek için fareyi noktanın üzerinde gezdirin.

Sonrasında hava gözlem ve tahminlerini görmek için tıklayın.

Haritayı değiştirmek için: yaklaştırmak için siyah artı işaretli yeşil düğmeye ve uzaklaştırmak için de eksi işaretli düğmeye hızla tıklayın; bitişik haritalar için yeşil okları kullanın.


METAR-TAF: